Huntley, Nebraska
Current Conditions -  °F | °C
As of 2:35 PM on Friday 19 Dec 2014 (Local Time) from KHDE Reporting Station
Haze Haze  
Wind Chill: 23°   Ceiling: 200
Heat Index: 31°   Visibility: 4mi
Dew Point: 30°   Wind: 9mph
Humidity: 96%   Direction: 220°SW
Pressure: 30.06"   Gusts: NA
Location:  40.1316°N, 99.2306°W
Report Text: KHDE 192035Z AUTO 22008KT 4SM BR OVC002 M01/M01 A3006 RMK AO2 T10071012
Loading
Personal Weather Stations






























Interactive Weather Map New forecast layout! Learn more

10-Day Weather Forecast

Advertisements
Track Severe Weather on mobile